Aérodrome :
LOGIN :

S'inscrire | Disclaimer

   EN    FR    IT 

 










Légende :    VFR   VFR Marginal   IFR   IFR Intensif   IFR Très Intensif
Visi : 
Plafond : 
>= 8 km
>= 3000ft
5 à 8 km
1000 à 3000 ft
1500m à 5 km
500 à 1000 ft
800 à 1500m
200 à 500 ft
< 800m
< 200 ft
Symboles :   Orages  Brouillard  Fortes neiges  Fortes précipitations  Vent > 20 kt
SIGMETs :   Divers  Orages  Givrage  Turbulence  Onde Orograph.  Cendres Volcan.







- Altitude de l'aérodrome : 7 ft
- Code IATA : XHE
- Voir les cartes d'approche


LFTH - Hyeres

DERNIER METAR :
  • 220230Z AUTO 02004KT 4400 BR NSC 04/03 Q1026 NOSIG

METARs EXPIRÉS :
  • 220200Z AUTO 35002KT 5000 BR NSC 05/04 Q1026 NOSIG
  • 220130Z AUTO 03003KT 350V060 4800 BR NSC 04/03 Q1027 NOSIG
  • 220100Z AUTO 02003KT 4700 BR NSC 04/03 Q1027 NOSIG
  • 220030Z AUTO 03004KT 4400 BR NSC 05/04 Q1027 NOSIG
  • 220000Z AUTO VRB02KT 5000 BR NSC 05/04 Q1027 NOSIG

TAF TAF LFTH
Valide du 22 à 03h jusqu'au 23 à 03h UTC


220200Z 2203/2303 31005KT CAVOK
TEMPO 2203/2206 3000 BR
BECMG 2210/2212 14006KT
BECMG 2219/2221 34010KT
Pas de NOTAMs connus pour ce terrain.



MET'MAP, la Météo Aéronautique d'un coup d'oeil ! - Copyright ORBIFLY Décembre 2007 - Disclaimer

ORBIFLY MET'MAP TEAM :

Programmation & Développement : Alexandra Zaïnal
Conception & Développement : Baudouin d'Aumeries
Co-Programmation & Développement : Marc-Olivier Méhu
Soutien technique & logistique : Manuel Goepfert

Contact : metmap@orbifly.com




SOURCES & CREDITS :

   NOAA